Time;durP1;ratioP1;P1;durP2;ratioP2;P2;SDS_P1;SDS_P2;PMS_P1;PMS_P2;Temp;Humidity;BMP_temperature;BMP_pressure;BME280_temperature;BME280_humidity;BME280_pressure;Samples;Min_cycle;Max_cycle;Signal;HPM_P1;HPM_P2
2023/07/15 00:01:31;;;;;;;4.38;2.00;;;;;;;;;;6182440;23;20084;-80
2023/07/15 00:03:57;;;;;;;3.83;1.75;;;;;;;;;;6183129;23;20044;-80
2023/07/15 00:06:24;;;;;;;4.22;1.98;;;;;;;;;;6182395;23;20133;-80
2023/07/15 00:08:51;;;;;;;6.30;1.58;;;;;;;;;;6182885;23;20005;-80
2023/07/15 00:11:28;;;;;;;4.47;1.70;;;;;;;;;;6182091;23;20120;-80
2023/07/15 00:13:54;;;;;;;5.82;1.60;;;;;;;;;;6181476;23;20139;-80
2023/07/15 00:16:21;;;;;;;5.38;1.92;;;;;;;;;;6154217;23;20087;-80
2023/07/15 00:18:47;;;;;;;10.98;1.67;;;;;;;;;;6181357;23;20009;-80
2023/07/15 00:21:16;;;;;;;7.03;1.80;;;;;;;;;;6153932;23;20020;-80
2023/07/15 00:23:42;;;;;;;4.57;1.98;;;;;;;;;;6181293;23;20413;-80
2023/07/15 00:26:08;;;;;;;3.13;1.52;;;;;;;;;;6180507;23;20032;-79
2023/07/15 00:28:36;;;;;;;4.78;1.80;;;;;;;;;;6154765;23;20051;-80
2023/07/15 00:31:02;;;;;;;5.20;1.60;;;;;;;;;;6153947;23;20095;-79
2023/07/15 00:33:28;;;;;;;2.90;1.50;;;;;;;;;;6181219;23;20036;-79
2023/07/15 00:35:54;;;;;;;3.50;1.65;;;;;;;;;;6153823;23;20041;-80
2023/07/15 00:38:20;;;;;;;3.50;1.83;;;;;;;;;;6180317;23;20516;-80
2023/07/15 00:40:47;;;;;;;3.33;1.60;;;;;;;;;;6181104;23;20021;-80
2023/07/15 00:43:32;;;;;;;4.32;1.70;;;;;;;;;;6153822;23;20055;-80
2023/07/15 00:46:26;;;;;;;3.03;1.55;;;;;;;;;;6181150;23;20013;-80
2023/07/15 00:49:06;;;;;;;3.88;1.80;;;;;;;;;;6147216;23;20019;-80
2023/07/15 00:51:37;;;;;;;4.07;1.60;;;;;;;;;;6153412;23;20055;-80
2023/07/15 00:54:04;;;;;;;3.72;1.88;;;;;;;;;;6154733;23;20009;-80
2023/07/15 00:56:31;;;;;;;3.55;1.80;;;;;;;;;;6180749;23;20056;-80
2023/07/15 00:58:57;;;;;;;6.10;1.88;;;;;;;;;;6181029;23;20076;-80
2023/07/15 01:01:23;;;;;;;5.63;1.40;;;;;;;;;;6180801;23;20067;-80
2023/07/15 01:03:49;;;;;;;5.38;2.08;;;;;;;;;;6180200;23;20004;-80
2023/07/15 01:06:15;;;;;;;6.03;2.28;;;;;;;;;;6181181;23;20024;-80
2023/07/15 01:08:41;;;;;;;3.90;1.85;;;;;;;;;;6180033;23;20001;-80
2023/07/15 01:11:07;;;;;;;5.15;1.90;;;;;;;;;;6180982;23;20017;-80
2023/07/15 01:13:34;;;;;;;4.47;2.05;;;;;;;;;;6132557;23;1145998;-79
2023/07/15 01:16:00;;;;;;;3.10;1.40;;;;;;;;;;6182345;23;20008;-80
2023/07/15 01:18:26;;;;;;;6.05;1.60;;;;;;;;;;6181911;23;20005;-80
2023/07/15 01:20:52;;;;;;;4.97;1.50;;;;;;;;;;6182468;23;20008;-80
2023/07/15 01:23:18;;;;;;;7.97;2.10;;;;;;;;;;6182070;23;20009;-80
2023/07/15 01:25:44;;;;;;;4.60;1.85;;;;;;;;;;6182430;23;20689;-80
2023/07/15 01:28:10;;;;;;;11.00;2.45;;;;;;;;;;6155657;23;20385;-80
2023/07/15 01:30:36;;;;;;;4.22;1.63;;;;;;;;;;6181951;23;20037;-79
2023/07/15 01:33:02;;;;;;;7.40;2.05;;;;;;;;;;6181553;23;20013;-80
2023/07/15 01:35:28;;;;;;;4.35;1.83;;;;;;;;;;6181788;23;20008;-80
2023/07/15 01:37:54;;;;;;;5.05;1.88;;;;;;;;;;6155268;23;20017;-80
2023/07/15 01:40:21;;;;;;;6.03;1.60;;;;;;;;;;6154834;23;20040;-80
2023/07/15 01:42:47;;;;;;;3.97;1.65;;;;;;;;;;6182620;23;20005;-80
2023/07/15 01:45:13;;;;;;;3.90;1.80;;;;;;;;;;6154948;23;20005;-80
2023/07/15 01:47:40;;;;;;;3.53;1.67;;;;;;;;;;6155779;23;20796;-80
2023/07/15 01:50:06;;;;;;;4.82;1.58;;;;;;;;;;6181199;23;20088;-80
2023/07/15 01:52:32;;;;;;;4.15;1.83;;;;;;;;;;6181900;23;20005;-80
2023/07/15 01:54:58;;;;;;;5.15;1.83;;;;;;;;;;6180998;23;20401;-80
2023/07/15 01:57:28;;;;;;;4.85;2.25;;;;;;;;;;6155509;23;20048;-79
2023/07/15 01:59:57;;;;;;;4.22;2.35;;;;;;;;;;6155575;23;20037;-80
2023/07/15 02:02:26;;;;;;;4.18;2.00;;;;;;;;;;6182210;23;20361;-80
2023/07/15 02:04:52;;;;;;;5.20;1.73;;;;;;;;;;6181725;23;20100;-80
2023/07/15 02:07:18;;;;;;;5.43;1.85;;;;;;;;;;6181751;23;20036;-80
2023/07/15 02:09:44;;;;;;;5.15;1.73;;;;;;;;;;6181666;23;20068;-80
2023/07/15 02:12:10;;;;;;;4.97;1.45;;;;;;;;;;6181387;23;20452;-79
2023/07/15 02:14:36;;;;;;;3.70;1.98;;;;;;;;;;6182089;23;20024;-80
2023/07/15 02:17:03;;;;;;;6.57;1.70;;;;;;;;;;6153573;23;20021;-79
2023/07/15 02:19:32;;;;;;;5.00;1.88;;;;;;;;;;6155567;23;20069;-80
2023/07/15 02:21:59;;;;;;;7.45;2.28;;;;;;;;;;6181204;23;20061;-80
2023/07/15 02:24:25;;;;;;;4.57;2.22;;;;;;;;;;6181813;23;20358;-80
2023/07/15 02:26:51;;;;;;;3.10;1.50;;;;;;;;;;6154661;23;20060;-79
2023/07/15 02:29:17;;;;;;;4.00;1.60;;;;;;;;;;6181759;23;20012;-80
2023/07/15 02:31:44;;;;;;;5.43;1.70;;;;;;;;;;6180908;23;20013;-80
2023/07/15 02:34:10;;;;;;;5.40;2.10;;;;;;;;;;6181587;23;20110;-80
2023/07/15 02:36:36;;;;;;;5.40;1.60;;;;;;;;;;6154394;23;20009;-80
2023/07/15 02:39:04;;;;;;;5.13;1.50;;;;;;;;;;6181723;23;20009;-80
2023/07/15 02:41:31;;;;;;;4.40;1.60;;;;;;;;;;6180926;23;20012;-79
2023/07/15 02:43:57;;;;;;;2.85;1.73;;;;;;;;;;6181766;23;20025;-80
2023/07/15 02:46:23;;;;;;;3.95;2.03;;;;;;;;;;6154773;23;20017;-80
2023/07/15 02:48:49;;;;;;;4.88;1.55;;;;;;;;;;6181040;23;20013;-80
2023/07/15 02:51:15;;;;;;;4.28;2.03;;;;;;;;;;6181124;23;20009;-80
2023/07/15 02:53:41;;;;;;;4.80;1.63;;;;;;;;;;6180622;23;20107;-80
2023/07/15 02:56:07;;;;;;;5.68;2.17;;;;;;;;;;6181261;23;20024;-80
2023/07/15 02:58:33;;;;;;;6.93;1.88;;;;;;;;;;6180558;23;20012;-80
2023/07/15 03:00:59;;;;;;;8.38;1.92;;;;;;;;;;6181418;23;20009;-80
2023/07/15 03:03:25;;;;;;;8.02;2.22;;;;;;;;;;6180497;23;20009;-80
2023/07/15 03:05:54;;;;;;;4.50;1.80;;;;;;;;;;6181338;23;20031;-80
2023/07/15 03:08:20;;;;;;;4.65;1.88;;;;;;;;;;6180890;23;20017;-80
2023/07/15 03:10:46;;;;;;;5.13;2.30;;;;;;;;;;6181485;23;20012;-80
2023/07/15 03:13:12;;;;;;;5.15;1.80;;;;;;;;;;6180366;23;20025;-80
2023/07/15 03:15:40;;;;;;;5.57;1.75;;;;;;;;;;6154308;23;20013;-79
2023/07/15 03:18:06;;;;;;;5.38;1.60;;;;;;;;;;6180608;23;20016;-79
2023/07/15 03:20:32;;;;;;;5.13;1.75;;;;;;;;;;6181269;23;20444;-80
2023/07/15 03:22:58;;;;;;;3.85;1.50;;;;;;;;;;6180298;23;20009;-80
2023/07/15 03:25:25;;;;;;;4.20;1.50;;;;;;;;;;6181206;23;20068;-80
2023/07/15 03:27:51;;;;;;;4.70;1.30;;;;;;;;;;6154344;23;20017;-80
2023/07/15 03:30:18;;;;;;;3.95;1.80;;;;;;;;;;6181088;23;20005;-80
2023/07/15 03:32:45;;;;;;;4.95;1.40;;;;;;;;;;6154148;23;20013;-80
2023/07/15 03:35:12;;;;;;;6.72;1.50;;;;;;;;;;6181361;23;20005;-80
2023/07/15 03:37:39;;;;;;;4.53;1.65;;;;;;;;;;6154324;23;20017;-79
2023/07/15 03:40:08;;;;;;;10.02;1.75;;;;;;;;;;6181436;23;20010;-80
2023/07/15 03:42:37;;;;;;;3.95;1.65;;;;;;;;;;6181102;23;20009;-80
2023/07/15 03:45:04;;;;;;;4.18;1.77;;;;;;;;;;6181283;23;20015;-80
2023/07/15 03:47:30;;;;;;;6.97;1.70;;;;;;;;;;6180924;23;20329;-80
2023/07/15 03:49:56;;;;;;;3.83;1.42;;;;;;;;;;6181197;23;20008;-80
2023/07/15 03:52:22;;;;;;;5.43;1.70;;;;;;;;;;6180740;23;20015;-80
2023/07/15 03:54:48;;;;;;;2.78;1.50;;;;;;;;;;6180467;23;20009;-80
2023/07/15 03:57:14;;;;;;;6.07;1.88;;;;;;;;;;6181321;23;20091;-79
2023/07/15 03:59:40;;;;;;;4.50;1.45;;;;;;;;;;6180638;23;20029;-80
2023/07/15 04:02:06;;;;;;;5.18;1.45;;;;;;;;;;6181426;23;20405;-79
2023/07/15 04:04:32;;;;;;;2.58;1.52;;;;;;;;;;6180571;23;20011;-80
2023/07/15 04:06:59;;;;;;;4.00;1.50;;;;;;;;;;6181570;23;20040;-79
2023/07/15 04:09:25;;;;;;;6.82;1.27;;;;;;;;;;6180560;23;20005;-80
2023/07/15 04:11:51;;;;;;;3.78;1.80;;;;;;;;;;6181006;23;20043;-80
2023/07/15 04:14:17;;;;;;;6.53;1.60;;;;;;;;;;6180573;23;20365;-80
2023/07/15 04:16:43;;;;;;;4.43;1.85;;;;;;;;;;6154560;23;20013;-80
2023/07/15 04:19:10;;;;;;;2.75;1.33;;;;;;;;;;6180378;23;20009;-80
2023/07/15 04:21:36;;;;;;;5.55;1.50;;;;;;;;;;6181391;23;20009;-80
2023/07/15 04:24:03;;;;;;;2.67;1.30;;;;;;;;;;6180123;23;20005;-80
2023/07/15 04:26:29;;;;;;;5.20;1.50;;;;;;;;;;6181254;23;20072;-80
2023/07/15 04:28:55;;;;;;;3.20;1.42;;;;;;;;;;6180429;23;20017;-79
2023/07/15 04:31:21;;;;;;;4.97;1.48;;;;;;;;;;6180806;23;20009;-80
2023/07/15 04:33:48;;;;;;;6.00;1.52;;;;;;;;;;6180864;23;20040;-80
2023/07/15 04:36:14;;;;;;;4.95;1.40;;;;;;;;;;6180435;23;20005;-80
2023/07/15 04:38:40;;;;;;;4.82;1.50;;;;;;;;;;6180991;23;20013;-80
2023/07/15 04:41:06;;;;;;;3.25;1.60;;;;;;;;;;6182155;23;20005;-79
2023/07/15 04:43:32;;;;;;;4.30;1.83;;;;;;;;;;6182541;23;20016;-80
2023/07/15 04:45:59;;;;;;;4.20;1.95;;;;;;;;;;6182327;23;20008;-80
2023/07/15 04:48:25;;;;;;;5.35;1.98;;;;;;;;;;6182346;23;20012;-80
2023/07/15 04:50:51;;;;;;;6.30;2.20;;;;;;;;;;6181856;23;20032;-80
2023/07/15 04:53:17;;;;;;;6.10;1.67;;;;;;;;;;6181121;23;20013;-79
2023/07/15 04:55:43;;;;;;;6.47;1.85;;;;;;;;;;6182384;23;20016;-80
2023/07/15 04:58:11;;;;;;;6.30;1.42;;;;;;;;;;6155840;23;20021;-80
2023/07/15 05:00:37;;;;;;;5.30;1.60;;;;;;;;;;6155682;23;20500;-80
2023/07/15 05:03:07;;;;;;;4.78;1.80;;;;;;;;;;6182510;23;20017;-80
2023/07/15 05:05:33;;;;;;;6.07;1.65;;;;;;;;;;6182270;23;20040;-80
2023/07/15 05:08:09;;;;;;;6.57;1.98;;;;;;;;;;6155981;23;20045;-80
2023/07/15 05:10:36;;;;;;;4.63;1.20;;;;;;;;;;6182077;23;20498;-81
2023/07/15 05:13:02;;;;;;;5.78;1.70;;;;;;;;;;6155549;23;20729;-80
2023/07/15 05:15:28;;;;;;;4.88;1.52;;;;;;;;;;6182282;23;20433;-81
2023/07/15 05:17:54;;;;;;;3.45;1.10;;;;;;;;;;6181793;23;20432;-80
2023/07/15 05:20:20;;;;;;;4.00;2.05;;;;;;;;;;6155605;23;20362;-80
2023/07/15 05:22:46;;;;;;;4.20;1.83;;;;;;;;;;6181596;23;20016;-80
2023/07/15 05:25:12;;;;;;;6.05;1.48;;;;;;;;;;6182258;23;20008;-81
2023/07/15 05:27:39;;;;;;;3.95;1.20;;;;;;;;;;6181497;23;20040;-80
2023/07/15 05:30:05;;;;;;;3.20;1.40;;;;;;;;;;6182315;23;20020;-80
2023/07/15 05:32:31;;;;;;;4.20;1.20;;;;;;;;;;6181628;23;20013;-80
2023/07/15 05:34:57;;;;;;;5.13;1.50;;;;;;;;;;6182128;23;20008;-80
2023/07/15 05:37:23;;;;;;;4.60;1.38;;;;;;;;;;6155200;23;20032;-80
2023/07/15 05:39:49;;;;;;;4.82;1.23;;;;;;;;;;6155504;23;20009;-81
2023/07/15 05:42:15;;;;;;;8.32;1.77;;;;;;;;;;6182666;23;20107;-81
2023/07/15 05:44:41;;;;;;;4.43;1.20;;;;;;;;;;6181978;23;20787;-81
2023/07/15 05:47:07;;;;;;;4.30;1.85;;;;;;;;;;6182378;23;20013;-80
2023/07/15 05:49:33;;;;;;;3.42;1.20;;;;;;;;;;6181994;23;20583;-81
2023/07/15 05:51:59;;;;;;;5.00;1.42;;;;;;;;;;6180804;23;20013;-80
2023/07/15 05:54:25;;;;;;;4.05;1.45;;;;;;;;;;6181795;23;20013;-81
2023/07/15 05:56:52;;;;;;;4.05;1.40;;;;;;;;;;6181886;23;20009;-80
2023/07/15 05:59:18;;;;;;;4.15;1.50;;;;;;;;;;6181910;23;20020;-80
2023/07/15 06:01:45;;;;;;;3.13;1.48;;;;;;;;;;6181422;23;20016;-81
2023/07/15 06:04:11;;;;;;;5.60;1.58;;;;;;;;;;6182060;23;20076;-80
2023/07/15 06:06:37;;;;;;;5.13;1.95;;;;;;;;;;6180982;23;20040;-80
2023/07/15 06:09:03;;;;;;;3.92;1.70;;;;;;;;;;6181025;23;20451;-80
2023/07/15 06:11:29;;;;;;;3.35;1.70;;;;;;;;;;6181774;23;20055;-81
2023/07/15 06:13:55;;;;;;;4.13;1.60;;;;;;;;;;6180581;23;20024;-81
2023/07/15 06:16:21;;;;;;;3.45;1.58;;;;;;;;;;6155185;23;20020;-81
2023/07/15 06:18:47;;;;;;;4.22;1.83;;;;;;;;;;6154614;23;20017;-80
2023/07/15 06:21:13;;;;;;;5.80;1.80;;;;;;;;;;6181786;23;20421;-80
2023/07/15 06:23:39;;;;;;;4.68;1.60;;;;;;;;;;6180868;23;20013;-80
2023/07/15 06:26:05;;;;;;;4.15;1.52;;;;;;;;;;6181387;23;20008;-82
2023/07/15 06:28:31;;;;;;;6.28;1.83;;;;;;;;;;6180803;23;20084;-82
2023/07/15 06:31:01;;;;;;;4.65;1.45;;;;;;;;;;6154454;23;20020;-82
2023/07/15 06:33:27;;;;;;;4.00;1.40;;;;;;;;;;6181232;23;20456;-82
2023/07/15 06:35:54;;;;;;;7.97;1.67;;;;;;;;;;6181051;23;20017;-82
2023/07/15 06:38:19;;;;;;;3.70;1.67;;;;;;;;;;6154469;23;20028;-82
2023/07/15 06:40:45;;;;;;;3.38;1.77;;;;;;;;;;6180431;23;20020;-81
2023/07/15 06:43:11;;;;;;;3.95;1.52;;;;;;;;;;6181111;23;20020;-82
2023/07/15 06:45:37;;;;;;;3.85;1.90;;;;;;;;;;6181012;23;20087;-82
2023/07/15 06:48:04;;;;;;;3.40;1.70;;;;;;;;;;6154940;23;20021;-82
2023/07/15 06:50:30;;;;;;;3.90;1.58;;;;;;;;;;6154281;23;20079;-82
2023/07/15 06:52:56;;;;;;;6.25;1.98;;;;;;;;;;6154585;23;20575;-82
2023/07/15 06:55:22;;;;;;;4.50;1.48;;;;;;;;;;6153995;23;20116;-82
2023/07/15 06:57:48;;;;;;;4.82;1.90;;;;;;;;;;6154426;23;20483;-82
2023/07/15 07:00:14;;;;;;;5.10;1.60;;;;;;;;;;6154497;23;20016;-82
2023/07/15 07:02:40;;;;;;;4.40;1.63;;;;;;;;;;6181923;23;20068;-82
2023/07/15 07:05:06;;;;;;;4.53;1.30;;;;;;;;;;6154547;23;20107;-82
2023/07/15 07:07:32;;;;;;;5.80;1.30;;;;;;;;;;6182488;23;20095;-82
2023/07/15 07:09:58;;;;;;;3.53;1.50;;;;;;;;;;6154081;23;20044;-82
2023/07/15 07:12:24;;;;;;;3.72;1.77;;;;;;;;;;6180914;23;20471;-82
2023/07/15 07:14:50;;;;;;;3.53;1.60;;;;;;;;;;6154834;23;20060;-82
2023/07/15 07:17:16;;;;;;;7.35;1.73;;;;;;;;;;6154540;23;20020;-82
2023/07/15 07:19:43;;;;;;;3.22;1.58;;;;;;;;;;6181179;23;20005;-82
2023/07/15 07:22:09;;;;;;;5.72;1.60;;;;;;;;;;6154220;23;20067;-82
2023/07/15 07:24:35;;;;;;;3.88;2.05;;;;;;;;;;6180819;23;20029;-81
2023/07/15 07:27:01;;;;;;;6.03;1.90;;;;;;;;;;6181214;23;20009;-82
2023/07/15 07:29:27;;;;;;;4.60;1.65;;;;;;;;;;6154757;23;20035;-82
2023/07/15 07:31:53;;;;;;;3.70;1.38;;;;;;;;;;6154054;23;20437;-82
2023/07/15 07:34:19;;;;;;;4.40;1.73;;;;;;;;;;6154967;23;20009;-82
2023/07/15 07:36:45;;;;;;;3.83;1.38;;;;;;;;;;6154376;23;20361;-82
2023/07/15 07:39:12;;;;;;;3.50;1.67;;;;;;;;;;6154431;23;20036;-82
2023/07/15 07:41:39;;;;;;;3.47;1.50;;;;;;;;;;6181042;23;20052;-82
2023/07/15 07:44:05;;;;;;;4.88;1.58;;;;;;;;;;6154631;23;20131;-81
2023/07/15 07:46:31;;;;;;;5.65;1.98;;;;;;;;;;6154482;23;20016;-82
2023/07/15 07:48:57;;;;;;;8.50;1.50;;;;;;;;;;6181807;23;20019;-80
2023/07/15 07:51:23;;;;;;;4.32;1.75;;;;;;;;;;6154816;23;20013;-80
2023/07/15 07:53:49;;;;;;;4.78;1.75;;;;;;;;;;6155371;23;20104;-80
2023/07/15 07:56:15;;;;;;;3.95;1.70;;;;;;;;;;6181553;23;20015;-82
2023/07/15 07:58:41;;;;;;;3.22;1.33;;;;;;;;;;6154297;23;20119;-81
2023/07/15 08:01:07;;;;;;;4.18;1.58;;;;;;;;;;6180872;23;20460;-81
2023/07/15 08:03:33;;;;;;;3.45;1.50;;;;;;;;;;6181167;23;20025;-82
2023/07/15 08:06:02;;;;;;;4.43;2.20;;;;;;;;;;6153957;23;20005;-82
2023/07/15 08:08:28;;;;;;;4.63;1.70;;;;;;;;;;6154387;23;20013;-82
2023/07/15 08:10:54;;;;;;;4.32;1.60;;;;;;;;;;6180884;23;20040;-82
2023/07/15 08:13:20;;;;;;;4.68;1.67;;;;;;;;;;6180992;23;20103;-82
2023/07/15 08:15:46;;;;;;;3.00;1.38;;;;;;;;;;6155144;23;20021;-82
2023/07/15 08:18:12;;;;;;;3.80;1.48;;;;;;;;;;6156016;23;20496;-82
2023/07/15 08:20:41;;;;;;;3.53;1.50;;;;;;;;;;6156318;23;20015;-82
2023/07/15 08:23:07;;;;;;;6.95;1.92;;;;;;;;;;6182712;23;20033;-82
2023/07/15 08:25:33;;;;;;;3.75;1.63;;;;;;;;;;6156827;23;20009;-80
2023/07/15 08:27:59;;;;;;;6.38;2.10;;;;;;;;;;6182499;23;20330;-82
2023/07/15 08:30:28;;;;;;;6.32;2.28;;;;;;;;;;6182585;23;20119;-79
2023/07/15 08:32:54;;;;;;;3.90;1.40;;;;;;;;;;6155699;23;20105;-80
2023/07/15 08:35:22;;;;;;;6.40;1.77;;;;;;;;;;6183040;23;20005;-79
2023/07/15 08:37:56;;;;;;;6.72;1.83;;;;;;;;;;6181914;23;20013;-81
2023/07/15 08:40:27;;;;;;;6.22;1.92;;;;;;;;;;6157162;23;20009;-80
2023/07/15 08:42:53;;;;;;;6.22;1.38;;;;;;;;;;6182855;23;20013;-80
2023/07/15 08:45:20;;;;;;;3.38;1.60;;;;;;;;;;6156365;23;20012;-80
2023/07/15 08:47:49;;;;;;;4.07;1.38;;;;;;;;;;6156170;23;20072;-80
2023/07/15 08:50:17;;;;;;;6.65;1.40;;;;;;;;;;6182542;23;20005;-79
2023/07/15 08:52:44;;;;;;;3.35;1.70;;;;;;;;;;6182563;23;20340;-80
2023/07/15 08:55:11;;;;;;;5.25;1.30;;;;;;;;;;6156734;23;20009;-79
2023/07/15 08:57:37;;;;;;;4.00;1.67;;;;;;;;;;6155402;23;20024;-80
2023/07/15 09:00:09;;;;;;;5.78;1.60;;;;;;;;;;6156500;23;20333;-80
2023/07/15 09:02:39;;;;;;;4.43;1.58;;;;;;;;;;6155992;23;20084;-80
2023/07/15 09:05:11;;;;;;;7.10;1.70;;;;;;;;;;6156201;23;20500;-80
2023/07/15 09:08:11;;;;;;;4.80;1.73;;;;;;;;;;6182462;23;20017;-80
2023/07/15 09:10:38;;;;;;;3.33;1.48;;;;;;;;;;6164894;23;20035;-80
2023/07/15 09:13:04;;;;;;;4.55;1.80;;;;;;;;;;6181877;23;20027;-79
2023/07/15 09:15:30;;;;;;;4.18;1.67;;;;;;;;;;6182244;23;20013;-80
2023/07/15 09:18:00;;;;;;;8.38;2.22;;;;;;;;;;6156051;23;20020;-80
2023/07/15 09:20:28;;;;;;;6.20;1.90;;;;;;;;;;6155343;23;20829;-80
2023/07/15 09:23:00;;;;;;;3.72;1.48;;;;;;;;;;6181939;23;20020;-79
2023/07/15 09:25:27;;;;;;;7.00;1.55;;;;;;;;;;6155608;23;20080;-80
2023/07/15 09:27:53;;;;;;;5.00;1.88;;;;;;;;;;6182663;23;20803;-80
2023/07/15 09:30:21;;;;;;;8.27;1.95;;;;;;;;;;6182027;23;20032;-80
2023/07/15 09:32:47;;;;;;;5.22;1.63;;;;;;;;;;6155598;23;20024;-80
2023/07/15 09:35:14;;;;;;;5.32;1.55;;;;;;;;;;6182454;23;20013;-80
2023/07/15 09:37:44;;;;;;;6.07;1.70;;;;;;;;;;6155573;23;20096;-80
2023/07/15 09:40:10;;;;;;;8.25;1.90;;;;;;;;;;6155207;23;20008;-80
2023/07/15 09:42:56;;;;;;;2.88;1.58;;;;;;;;;;6156228;23;20109;-80
2023/07/15 09:45:38;;;;;;;3.17;1.50;;;;;;;;;;6181824;23;20457;-80
2023/07/15 09:48:05;;;;;;;4.05;1.90;;;;;;;;;;6182553;23;20063;-80
2023/07/15 09:50:32;;;;;;;5.97;1.83;;;;;;;;;;6181828;23;20009;-80
2023/07/15 09:52:59;;;;;;;3.58;1.65;;;;;;;;;;6155665;23;20134;-80
2023/07/15 09:55:25;;;;;;;4.32;1.63;;;;;;;;;;6154961;23;20009;-80
2023/07/15 09:57:54;;;;;;;4.38;1.50;;;;;;;;;;6182001;23;20012;-80
2023/07/15 10:00:21;;;;;;;5.05;1.80;;;;;;;;;;6181586;23;20012;-80
2023/07/15 10:02:49;;;;;;;4.78;1.63;;;;;;;;;;6181827;23;20005;-79
2023/07/15 10:05:15;;;;;;;5.40;1.77;;;;;;;;;;6154713;23;20040;-80
2023/07/15 10:07:42;;;;;;;3.75;1.80;;;;;;;;;;6182070;23;20060;-80
2023/07/15 10:10:08;;;;;;;4.43;1.98;;;;;;;;;;6154904;23;20777;-80
2023/07/15 10:12:35;;;;;;;2.92;1.70;;;;;;;;;;6155512;23;20029;-80
2023/07/15 10:15:02;;;;;;;6.40;2.00;;;;;;;;;;6156104;23;20045;-80
2023/07/15 10:17:37;;;;;;;7.10;1.52;;;;;;;;;;6182039;23;20009;-80
2023/07/15 10:20:25;;;;;;;3.80;1.60;;;;;;;;;;6155754;23;20017;-80
2023/07/15 10:22:51;;;;;;;7.43;1.58;;;;;;;;;;6155682;23;20005;-80
2023/07/15 10:25:17;;;;;;;2.92;1.50;;;;;;;;;;6155492;23;20013;-80
2023/07/15 10:27:43;;;;;;;8.70;1.77;;;;;;;;;;6182181;23;20036;-80
2023/07/15 10:30:20;;;;;;;4.68;1.80;;;;;;;;;;6156074;23;20780;-80
2023/07/15 10:33:09;;;;;;;4.07;1.40;;;;;;;;;;6154974;23;20079;-80
2023/07/15 10:35:45;;;;;;;5.63;1.65;;;;;;;;;;6143322;23;20025;-80
2023/07/15 10:38:20;;;;;;;6.75;1.55;;;;;;;;;;6154828;23;20013;-80
2023/07/15 10:40:50;;;;;;;4.43;1.80;;;;;;;;;;6181691;23;20013;-80
2023/07/15 10:43:23;;;;;;;6.63;1.80;;;;;;;;;;6181433;23;20061;-80
2023/07/15 10:45:53;;;;;;;3.45;1.67;;;;;;;;;;6154743;23;20084;-79
2023/07/15 10:48:20;;;;;;;4.78;2.15;;;;;;;;;;6181461;23;20107;-80
2023/07/15 10:50:47;;;;;;;4.50;1.95;;;;;;;;;;6154925;23;20127;-79
2023/07/15 10:53:23;;;;;;;5.65;1.58;;;;;;;;;;6154254;23;20012;-80
2023/07/15 10:56:09;;;;;;;5.03;2.10;;;;;;;;;;6154876;23;20016;-79
2023/07/15 10:58:36;;;;;;;10.75;1.70;;;;;;;;;;6181656;23;20005;-80
2023/07/15 11:01:04;;;;;;;30.52;4.40;;;;;;;;;;6154562;23;20012;-80
2023/07/15 11:03:31;;;;;;;10.07;3.20;;;;;;;;;;6181658;23;20012;-83
2023/07/15 11:06:03;;;;;;;11.15;3.17;;;;;;;;;;6180879;23;20013;-83
2023/07/15 11:08:30;;;;;;;10.68;3.22;;;;;;;;;;6155027;23;20005;-83
2023/07/15 11:10:59;;;;;;;10.57;3.10;;;;;;;;;;6153294;23;20021;-83
2023/07/15 11:13:25;;;;;;;10.73;2.90;;;;;;;;;;6154838;23;20401;-83
2023/07/15 11:15:51;;;;;;;7.75;2.88;;;;;;;;;;6154361;23;20017;-83
2023/07/15 11:18:18;;;;;;;17.90;3.75;;;;;;;;;;6154604;23;20095;-83
2023/07/15 11:20:48;;;;;;;13.40;3.80;;;;;;;;;;6154814;23;20020;-82
2023/07/15 11:23:18;;;;;;;6.80;2.80;;;;;;;;;;6154301;23;20059;-83
2023/07/15 11:25:53;;;;;;;7.60;3.05;;;;;;;;;;6154324;23;20020;-82
2023/07/15 11:28:19;;;;;;;9.15;3.67;;;;;;;;;;6180599;23;20015;-82
2023/07/15 11:30:48;;;;;;;13.82;3.92;;;;;;;;;;6154907;23;20012;-83
2023/07/15 11:33:15;;;;;;;9.65;3.00;;;;;;;;;;6181101;23;20013;-82
2023/07/15 11:35:41;;;;;;;6.72;3.17;;;;;;;;;;6181112;23;20035;-82
2023/07/15 11:38:11;;;;;;;10.80;3.40;;;;;;;;;;6154225;23;20056;-82
2023/07/15 11:40:50;;;;;;;6.93;2.97;;;;;;;;;;6181390;23;20005;-81
2023/07/15 11:43:17;;;;;;;7.63;2.88;;;;;;;;;;6181416;23;20005;-82
2023/07/15 11:45:50;;;;;;;8.13;2.28;;;;;;;;;;6181195;23;20644;-83
2023/07/15 11:48:24;;;;;;;13.23;3.65;;;;;;;;;;6153290;23;20010;-83
2023/07/15 11:50:52;;;;;;;9.13;3.25;;;;;;;;;;6156854;23;20103;-83
2023/07/15 11:53:28;;;;;;;9.43;2.78;;;;;;;;;;6156035;23;20017;-82
2023/07/15 11:55:59;;;;;;;9.68;2.60;;;;;;;;;;6157149;23;20043;-83
2023/07/15 11:58:37;;;;;;;11.40;2.90;;;;;;;;;;6155990;23;20020;-83
2023/07/15 12:01:13;;;;;;;10.07;2.42;;;;;;;;;;6156922;23;20523;-83
2023/07/15 12:03:42;;;;;;;9.55;2.80;;;;;;;;;;6155349;23;20023;-83
2023/07/15 12:06:25;;;;;;;9.98;2.90;;;;;;;;;;6156507;23;20072;-82
2023/07/15 12:09:10;;;;;;;7.30;2.67;;;;;;;;;;6155569;23;20161;-83
2023/07/15 12:11:39;;;;;;;8.63;3.78;;;;;;;;;;6156727;23;20013;-83
2023/07/15 12:14:08;;;;;;;12.32;3.42;;;;;;;;;;6182223;23;20025;-83
2023/07/15 12:16:35;;;;;;;6.32;2.42;;;;;;;;;;6156405;23;20017;-80
2023/07/15 12:19:10;;;;;;;8.05;2.10;;;;;;;;;;6155718;23;20032;-80
2023/07/15 12:21:41;;;;;;;6.07;2.17;;;;;;;;;;6183527;23;20033;-80
2023/07/15 12:24:10;;;;;;;5.35;2.10;;;;;;;;;;6156445;23;20013;-80
2023/07/15 12:26:36;;;;;;;5.60;2.55;;;;;;;;;;6156589;23;20012;-80
2023/07/15 12:29:12;;;;;;;5.70;2.60;;;;;;;;;;6156039;23;20019;-80
2023/07/15 12:31:40;;;;;;;6.45;2.30;;;;;;;;;;6156827;23;20370;-80
2023/07/15 12:34:09;;;;;;;9.18;2.35;;;;;;;;;;6156098;23;20100;-80
2023/07/15 12:36:41;;;;;;;5.30;2.10;;;;;;;;;;6155870;23;20100;-80
2023/07/15 12:39:09;;;;;;;7.20;2.83;;;;;;;;;;6182031;23;20019;-81
2023/07/15 12:41:35;;;;;;;6.40;2.35;;;;;;;;;;6182904;23;20005;-80
2023/07/15 12:44:13;;;;;;;9.05;2.47;;;;;;;;;;6181769;23;20087;-80
2023/07/15 12:46:41;;;;;;;12.57;2.67;;;;;;;;;;6182305;23;20021;-80
2023/07/15 12:49:11;;;;;;;6.95;2.58;;;;;;;;;;6155880;23;20108;-80
2023/07/15 12:51:42;;;;;;;9.05;2.50;;;;;;;;;;6183457;23;20025;-80
2023/07/15 12:54:17;;;;;;;5.78;2.10;;;;;;;;;;6155317;23;20699;-80
2023/07/15 12:56:43;;;;;;;5.93;2.35;;;;;;;;;;6183677;23;20016;-80
2023/07/15 12:59:14;;;;;;;6.30;2.00;;;;;;;;;;6155932;23;20013;-80
2023/07/15 13:01:42;;;;;;;;;;;;;;;;;;6156233;23;20009;-80
2023/07/15 13:04:14;;;;;;;5.30;2.10;;;;;;;;;;6179740;23;19943;-80
2023/07/15 13:06:42;;;;;;;;;;;;;;;;;;6183564;23;20031;-80
2023/07/15 13:09:14;;;;;;;4.78;2.05;;;;;;;;;;6179805;23;19917;-80
2023/07/15 13:11:46;;;;;;;6.65;2.03;;;;;;;;;;6182775;23;20013;-80
2023/07/15 13:14:18;;;;;;;6.20;1.58;;;;;;;;;;6181857;23;20085;-82
2023/07/15 13:16:51;;;;;;;5.82;2.63;;;;;;;;;;6182321;23;20084;-81
2023/07/15 13:19:18;;;;;;;4.88;2.20;;;;;;;;;;6155401;23;20017;-80
2023/07/15 13:21:54;;;;;;;5.15;1.98;;;;;;;;;;6155769;23;20020;-80
2023/07/15 13:24:24;;;;;;;6.10;2.47;;;;;;;;;;6154860;23;20009;-80
2023/07/15 13:26:53;;;;;;;7.43;2.70;;;;;;;;;;6155237;23;20017;-80
2023/07/15 13:29:22;;;;;;;4.82;2.20;;;;;;;;;;6154216;23;20008;-80
2023/07/15 13:31:53;;;;;;;4.72;2.00;;;;;;;;;;6154826;23;20021;-80
2023/07/15 13:34:19;;;;;;;;;;;;;;;;;;6181925;23;20306;-80
2023/07/15 13:36:58;;;;;;;8.35;2.25;;;;;;;;;;6181310;23;19936;-80
2023/07/15 13:39:35;;;;;;;6.95;2.83;;;;;;;;;;6154410;23;20027;-80
2023/07/15 13:42:01;;;;;;;9.90;2.45;;;;;;;;;;6155027;23;20021;-80
2023/07/15 13:44:50;;;;;;;7.75;2.22;;;;;;;;;;6155272;23;20087;-80
2023/07/15 13:47:21;;;;;;;6.15;2.30;;;;;;;;;;6148643;23;20383;-80
2023/07/15 13:49:49;;;;;;;6.07;2.67;;;;;;;;;;6124259;23;20031;-80
2023/07/15 13:52:18;;;;;;;7.05;2.40;;;;;;;;;;6124028;23;20021;-80
2023/07/15 13:54:44;;;;;;;6.47;2.22;;;;;;;;;;6123838;23;20036;-79
2023/07/15 13:57:13;;;;;;;8.02;2.45;;;;;;;;;;6123590;23;20089;-80
2023/07/15 13:59:42;;;;;;;6.50;2.20;;;;;;;;;;6123692;23;20014;-80
2023/07/15 14:02:13;;;;;;;7.47;2.35;;;;;;;;;;6148653;23;20019;-80
2023/07/15 14:04:39;;;;;;;6.60;2.37;;;;;;;;;;6148951;23;20001;-80
2023/07/15 14:07:05;;;;;;;8.23;2.38;;;;;;;;;;6149036;23;20307;-80
2023/07/15 14:09:31;;;;;;;6.90;2.60;;;;;;;;;;6123869;23;20775;-80
2023/07/15 14:11:57;;;;;;;7.05;2.15;;;;;;;;;;6141148;23;20017;-80
2023/07/15 14:14:23;;;;;;;8.45;2.60;;;;;;;;;;6156249;23;20009;-79
2023/07/15 14:16:49;;;;;;;14.20;3.08;;;;;;;;;;6155608;23;20047;-80
2023/07/15 14:19:15;;;;;;;9.70;2.42;;;;;;;;;;6155241;23;20040;-80
2023/07/15 14:21:41;;;;;;;7.68;2.40;;;;;;;;;;6155532;23;20012;-80
2023/07/15 14:24:07;;;;;;;7.28;2.55;;;;;;;;;;6182005;23;20083;-80
2023/07/15 14:26:34;;;;;;;7.28;2.58;;;;;;;;;;6155047;23;20032;-79
2023/07/15 14:29:00;;;;;;;4.90;2.30;;;;;;;;;;6155138;23;20064;-79
2023/07/15 14:31:26;;;;;;;8.68;2.22;;;;;;;;;;6181773;23;20027;-80
2023/07/15 14:33:55;;;;;;;6.90;2.58;;;;;;;;;;6182181;23;20009;-80
2023/07/15 14:36:25;;;;;;;10.77;2.55;;;;;;;;;;6180988;23;20162;-80
2023/07/15 14:38:52;;;;;;;8.30;2.57;;;;;;;;;;6181508;23;20842;-80
2023/07/15 14:41:18;;;;;;;7.78;2.10;;;;;;;;;;6181189;23;20064;-80
2023/07/15 14:43:44;;;;;;;5.57;2.10;;;;;;;;;;6154769;23;20017;-80
2023/07/15 14:46:10;;;;;;;7.35;2.45;;;;;;;;;;6181708;23;20001;-80
2023/07/15 14:48:37;;;;;;;11.90;2.85;;;;;;;;;;6154783;23;20812;-80